createdAt,value
2018-03-22T00:01:50.911Z,3.72
2018-03-22T00:02:31.316Z,3.74
2018-03-22T00:03:31.235Z,3.81
2018-03-22T00:04:31.222Z,3.81
2018-03-22T00:06:31.171Z,3.78
2018-03-22T00:08:31.287Z,3.73
2018-03-22T00:09:30.962Z,3.73
2018-03-22T00:10:30.891Z,3.76
2018-03-22T00:11:30.881Z,3.84
2018-03-22T00:12:30.851Z,3.82
2018-03-22T00:13:30.822Z,3.80
2018-03-22T00:14:30.844Z,3.74
2018-03-22T00:15:31.068Z,3.78
2018-03-22T00:16:30.820Z,3.85
2018-03-22T00:17:30.722Z,3.78
2018-03-22T00:18:30.780Z,3.76
2018-03-22T00:19:30.904Z,3.76
2018-03-22T00:20:30.704Z,3.80
2018-03-22T00:21:30.923Z,3.78
2018-03-22T00:22:30.680Z,3.85
2018-03-22T00:23:30.582Z,3.78
2018-03-22T00:24:30.560Z,3.82
2018-03-22T00:25:30.534Z,3.84
2018-03-22T00:26:30.604Z,3.78
2018-03-22T00:27:30.784Z,3.74
2018-03-22T00:28:30.467Z,3.82
2018-03-22T00:29:30.516Z,3.82
2018-03-22T00:30:31.390Z,3.84
2018-03-22T00:31:30.392Z,3.87
2018-03-22T00:32:30.419Z,3.82
2018-03-22T00:33:30.644Z,3.84
2018-03-22T00:34:30.329Z,3.82
2018-03-22T00:35:30.289Z,3.88
2018-03-22T00:36:30.275Z,3.90
2018-03-22T00:38:30.317Z,3.85
2018-03-22T00:39:30.215Z,3.85
2018-03-22T00:40:30.473Z,3.81
2018-03-22T00:41:30.268Z,3.88
2018-03-22T00:42:30.133Z,3.80
2018-03-22T00:43:30.112Z,3.82
2018-03-22T00:44:30.142Z,3.82
2018-03-22T00:45:30.136Z,3.87
2018-03-22T00:46:30.339Z,3.84
2018-03-22T00:47:30.034Z,3.84
2018-03-22T00:48:29.993Z,3.85
2018-03-22T00:49:30.016Z,3.90
2018-03-22T00:50:30.098Z,3.84
2018-03-22T00:51:30.001Z,3.82
2018-03-22T00:52:30.198Z,3.81
2018-03-22T00:53:30.055Z,3.82
2018-03-22T00:54:30.034Z,3.80
2018-03-22T00:55:29.933Z,3.80
2018-03-22T00:56:30.559Z,3.80
2018-03-22T00:57:29.906Z,3.90
2018-03-22T00:58:29.754Z,3.80
2018-03-22T00:59:30.027Z,3.84
2018-03-22T01:00:29.703Z,3.82
2018-03-22T01:02:29.705Z,3.85
2018-03-22T01:03:29.632Z,3.80
2018-03-22T01:05:29.917Z,3.87
2018-03-22T01:06:29.558Z,3.88
2018-03-22T01:07:29.532Z,3.72
2018-03-22T01:08:29.561Z,3.78
2018-03-22T01:09:29.491Z,3.81
2018-03-22T01:10:29.546Z,3.73
2018-03-22T01:11:29.447Z,3.84
2018-03-22T01:12:29.723Z,3.81
2018-03-22T01:13:29.409Z,3.74
2018-03-22T01:14:29.437Z,3.74
2018-03-22T01:15:29.358Z,3.78
2018-03-22T01:16:29.406Z,3.76
2018-03-22T01:17:29.380Z,3.74
2018-03-22T01:18:29.280Z,3.72
2018-03-22T01:19:29.554Z,3.74
2018-03-22T01:20:29.278Z,3.76
2018-03-22T01:21:29.204Z,3.84
2018-03-22T01:22:29.286Z,3.78
2018-03-22T01:23:29.161Z,3.78
2018-03-22T01:24:29.135Z,3.84
2018-03-22T01:25:29.128Z,3.74
2018-03-22T01:26:29.444Z,3.85
2018-03-22T01:27:29.065Z,3.72
2018-03-22T01:28:29.039Z,3.82
2018-03-22T01:29:29.019Z,3.81
2018-03-22T01:30:29.919Z,3.81
2018-03-22T01:31:29.099Z,3.76
2018-03-22T01:32:29.123Z,3.81
2018-03-22T01:33:29.460Z,3.82
2018-03-22T01:34:29.049Z,3.80
2018-03-22T01:35:29.096Z,3.81
2018-03-22T01:36:28.860Z,3.78
2018-03-22T01:37:28.847Z,3.81
2018-03-22T01:38:28.867Z,3.82
2018-03-22T01:39:28.797Z,3.81
2018-03-22T01:40:29.060Z,3.74
2018-03-22T01:41:28.732Z,3.85
2018-03-22T01:42:28.714Z,3.78
2018-03-22T01:43:28.687Z,3.82
2018-03-22T01:44:28.823Z,3.84
2018-03-22T01:45:28.638Z,3.84
2018-03-22T01:46:28.921Z,3.84
2018-03-22T01:47:28.595Z,3.80
2018-03-22T01:48:28.576Z,3.90
2018-03-22T01:49:28.553Z,3.82
2018-03-22T01:50:28.666Z,3.80
2018-03-22T01:51:28.510Z,3.74
2018-03-22T01:52:28.786Z,3.78
2018-03-22T01:53:28.460Z,3.87
2018-03-22T01:54:28.462Z,3.82
2018-03-22T01:55:28.408Z,3.84
2018-03-22T01:56:28.432Z,3.76
2018-03-22T01:57:28.359Z,3.85
2018-03-22T01:58:28.639Z,3.81
2018-03-22T01:59:28.318Z,3.80
2018-03-22T02:00:28.290Z,3.72
2018-03-22T02:02:28.292Z,3.74
2018-03-22T02:03:28.222Z,3.81
2018-03-22T02:04:28.497Z,3.82
2018-03-22T02:06:28.145Z,3.82
2018-03-22T02:07:28.134Z,3.78
2018-03-22T02:08:28.164Z,3.88
2018-03-22T02:09:28.073Z,3.72
2018-03-22T02:10:28.349Z,3.80
2018-03-22T02:11:28.032Z,3.78
2018-03-22T02:12:28.000Z,3.80
2018-03-22T02:13:27.983Z,3.76
2018-03-22T02:14:28.005Z,3.90
2018-03-22T02:15:27.933Z,3.74
2018-03-22T02:16:28.209Z,3.78
2018-03-22T02:17:27.885Z,3.73
2018-03-22T02:18:27.858Z,3.76
2018-03-22T02:19:27.944Z,3.85
2018-03-22T02:20:27.864Z,3.76
2018-03-22T02:21:27.790Z,3.85
2018-03-22T02:22:27.764Z,3.85
2018-03-22T02:23:28.055Z,3.80
2018-03-22T02:24:27.734Z,3.80
2018-03-22T02:25:27.717Z,3.81
2018-03-22T02:26:28.032Z,3.81
2018-03-22T02:27:27.659Z,3.69
2018-03-22T02:28:27.636Z,3.64
2018-03-22T02:30:28.036Z,3.62
2018-03-22T02:31:27.568Z,3.64
2018-03-22T02:32:27.599Z,3.56
2018-03-22T02:33:27.523Z,3.51
2018-03-22T02:34:27.502Z,3.49
2018-03-22T02:35:27.482Z,3.54
2018-03-22T02:36:27.622Z,3.41
2018-03-22T02:37:27.772Z,3.33
2018-03-22T02:38:27.523Z,3.25
2018-03-22T02:39:27.449Z,3.29
2018-03-22T02:40:27.347Z,3.29
2018-03-22T02:41:27.491Z,3.15
2018-03-22T02:42:27.305Z,3.17
2018-03-22T02:43:27.281Z,3.20
2018-03-22T02:44:27.617Z,3.08
2018-03-22T02:45:27.253Z,3.02
2018-03-22T02:46:27.204Z,2.99
2018-03-22T02:47:27.173Z,3.08
2018-03-22T02:48:27.149Z,3.09
2018-03-22T02:49:27.121Z,2.96
2018-03-22T02:50:27.148Z,3.07
2018-03-22T02:51:27.384Z,2.93
2018-03-22T02:52:27.058Z,2.93
2018-03-22T02:53:27.044Z,2.93
2018-03-22T02:54:27.559Z,2.90
2018-03-22T02:55:26.978Z,2.81
2018-03-22T02:56:27.155Z,2.75
2018-03-22T02:57:26.929Z,2.78
2018-03-22T02:58:27.229Z,2.79
2018-03-22T02:59:26.898Z,2.71
2018-03-22T03:00:26.916Z,2.71
2018-03-22T03:01:26.849Z,2.69
2018-03-22T03:03:26.792Z,2.69
2018-03-22T03:04:26.936Z,2.53
2018-03-22T03:05:27.038Z,2.54
2018-03-22T03:06:26.716Z,2.55
2018-03-22T03:07:26.682Z,2.57
2018-03-22T03:08:26.734Z,2.54
2018-03-22T03:09:26.681Z,2.58
2018-03-22T03:10:26.607Z,2.58
2018-03-22T03:11:26.993Z,2.53
2018-03-22T03:12:26.559Z,2.65
2018-03-22T03:13:26.551Z,2.63
2018-03-22T03:14:26.572Z,2.60
2018-03-22T03:15:26.492Z,2.55
2018-03-22T03:16:26.473Z,2.55
2018-03-22T03:17:26.743Z,2.58
2018-03-22T03:18:26.415Z,2.54
2018-03-22T03:19:26.517Z,2.58
2018-03-22T03:20:26.412Z,2.57
2018-03-22T03:21:26.342Z,2.57
2018-03-22T03:22:26.314Z,2.60
2018-03-22T03:23:26.596Z,2.54
2018-03-22T03:24:26.280Z,2.55
2018-03-22T03:25:26.238Z,2.51
2018-03-22T03:26:26.272Z,2.58
2018-03-22T03:27:26.297Z,2.57
2018-03-22T03:28:26.173Z,2.55
2018-03-22T03:29:26.462Z,2.53
2018-03-22T03:30:26.152Z,2.58
2018-03-22T03:31:26.097Z,2.53
2018-03-22T03:32:26.121Z,2.39
2018-03-22T03:33:26.040Z,2.39
2018-03-22T03:34:26.019Z,2.47
2018-03-22T03:35:26.345Z,2.51
2018-03-22T03:36:25.975Z,2.51
2018-03-22T03:37:25.948Z,2.54
2018-03-22T03:39:26.027Z,2.57
2018-03-22T03:40:26.072Z,2.53
2018-03-22T03:42:26.126Z,2.55
2018-03-22T03:43:25.800Z,2.58
2018-03-22T03:45:25.799Z,2.50
2018-03-22T03:46:25.718Z,2.58
2018-03-22T03:47:25.709Z,2.57
2018-03-22T03:48:25.668Z,2.55
2018-03-22T03:49:25.944Z,2.54
2018-03-22T03:50:25.618Z,2.55
2018-03-22T03:51:25.650Z,2.55
2018-03-22T03:53:25.563Z,2.54
2018-03-22T03:54:25.610Z,2.57
2018-03-22T03:55:25.635Z,2.53
2018-03-22T03:56:25.784Z,2.48
2018-03-22T03:57:25.509Z,2.51
2018-03-22T03:58:25.425Z,2.54
2018-03-22T04:00:25.368Z,2.55
2018-03-22T04:01:25.442Z,2.51
2018-03-22T04:02:25.319Z,2.60
2018-03-22T04:03:25.644Z,2.47
2018-03-22T04:04:25.269Z,2.55
2018-03-22T04:05:25.257Z,2.40
2018-03-22T04:06:25.232Z,2.51
2018-03-22T04:07:25.202Z,2.55
2018-03-22T04:08:25.177Z,2.50
2018-03-22T04:09:25.200Z,2.39
2018-03-22T04:10:25.564Z,2.43
2018-03-22T04:11:25.272Z,2.47
2018-03-22T04:12:25.292Z,2.45
2018-03-22T04:13:25.171Z,2.43
2018-03-22T04:14:25.191Z,2.47
2018-03-22T04:15:25.052Z,2.45
2018-03-22T04:16:24.976Z,2.37
2018-03-22T04:17:25.252Z,2.48
2018-03-22T04:18:24.931Z,2.45
2018-03-22T04:19:24.962Z,2.43
2018-03-22T04:20:24.876Z,2.36
2018-03-22T04:21:24.901Z,2.36
2018-03-22T04:22:24.829Z,2.36
2018-03-22T04:23:24.801Z,2.28
2018-03-22T04:24:25.081Z,2.36
2018-03-22T04:25:24.802Z,2.25
2018-03-22T04:26:24.727Z,2.37
2018-03-22T04:27:24.901Z,2.29
2018-03-22T04:28:24.730Z,2.29
2018-03-22T04:29:24.669Z,2.25
2018-03-22T04:30:24.949Z,2.32
2018-03-22T04:31:24.594Z,2.29
2018-03-22T04:32:24.572Z,2.28
2018-03-22T04:33:24.791Z,2.35
2018-03-22T04:34:24.528Z,2.28
2018-03-22T04:35:24.503Z,2.32
2018-03-22T04:36:24.768Z,2.29
2018-03-22T04:37:24.604Z,2.30
2018-03-22T04:38:24.431Z,2.22
2018-03-22T04:39:24.456Z,2.14
2018-03-22T04:40:24.498Z,2.15
2018-03-22T04:43:24.602Z,2.17
2018-03-22T04:44:24.275Z,2.15
2018-03-22T04:45:24.393Z,2.19
2018-03-22T04:46:24.222Z,2.18
2018-03-22T04:47:24.191Z,2.17
2018-03-22T04:48:24.165Z,2.15
2018-03-22T04:49:24.746Z,2.14
2018-03-22T04:50:24.122Z,2.12
2018-03-22T04:51:24.140Z,2.07
2018-03-22T04:52:24.427Z,2.03
2018-03-22T04:53:24.041Z,2.11
2018-03-22T04:54:24.024Z,2.12
2018-03-22T04:55:24.301Z,2.01
2018-03-22T04:56:24.054Z,2.04
2018-03-22T04:57:23.999Z,2.04
2018-03-22T04:59:23.895Z,2.17
2018-03-22T05:00:23.959Z,2.18
2018-03-22T05:01:24.156Z,2.10
2018-03-22T05:02:23.816Z,2.19
2018-03-22T05:03:23.841Z,2.25
2018-03-22T05:04:23.762Z,2.11
2018-03-22T05:05:23.737Z,2.18
2018-03-22T05:06:23.714Z,2.15
2018-03-22T05:07:23.784Z,2.21
2018-03-22T05:08:23.967Z,2.12
2018-03-22T05:09:23.681Z,2.15
2018-03-22T05:10:23.610Z,2.14
2018-03-22T05:11:23.704Z,2.11
2018-03-22T05:12:23.573Z,2.24
2018-03-22T05:13:23.537Z,2.33
2018-03-22T05:14:23.606Z,2.29
2018-03-22T05:15:23.923Z,2.28
2018-03-22T05:16:23.547Z,2.22
2018-03-22T05:17:23.515Z,2.25
2018-03-22T05:18:23.539Z,2.22
2018-03-22T05:19:23.466Z,2.29
2018-03-22T05:20:23.440Z,2.29
2018-03-22T05:21:23.470Z,2.25
2018-03-22T05:22:23.690Z,2.25
2018-03-22T05:23:23.380Z,2.30
2018-03-22T05:24:23.340Z,2.30
2018-03-22T05:25:23.234Z,2.28
2018-03-22T05:26:23.205Z,2.33
2018-03-22T05:27:23.313Z,2.30
2018-03-22T05:28:23.157Z,2.22
2018-03-22T05:29:23.434Z,2.25
2018-03-22T05:30:23.185Z,2.28
2018-03-22T05:31:23.160Z,2.33
2018-03-22T05:32:23.064Z,2.32
2018-03-22T05:35:23.358Z,2.35
2018-03-22T05:36:22.961Z,2.32
2018-03-22T05:37:23.011Z,2.37
2018-03-22T05:38:22.983Z,2.43
2018-03-22T05:39:22.931Z,2.42
2018-03-22T05:40:22.858Z,2.39
2018-03-22T05:42:23.106Z,2.40
2018-03-22T05:43:22.777Z,2.39
2018-03-22T05:44:22.777Z,2.42
2018-03-22T05:45:22.789Z,2.50
2018-03-22T05:46:22.806Z,2.37
2018-03-22T05:47:22.777Z,2.35
2018-03-22T05:48:22.647Z,2.45
2018-03-22T05:49:22.923Z,2.43
2018-03-22T05:50:22.603Z,2.43
2018-03-22T05:51:22.634Z,2.47
2018-03-22T05:52:22.850Z,2.45
2018-03-22T05:53:22.623Z,2.42
2018-03-22T05:54:22.502Z,2.45
2018-03-22T05:55:22.794Z,2.48
2018-03-22T05:56:22.440Z,2.43
2018-03-22T05:57:22.467Z,2.60
2018-03-22T05:58:22.410Z,2.51
2018-03-22T05:59:22.371Z,2.58
2018-03-22T06:00:22.426Z,2.58
2018-03-22T06:01:22.698Z,2.55
2018-03-22T06:02:22.385Z,2.55
2018-03-22T06:03:22.332Z,2.55
2018-03-22T06:04:22.326Z,2.55
2018-03-22T06:05:22.223Z,2.55
2018-03-22T06:06:22.210Z,2.54
2018-03-22T06:07:22.549Z,2.60
2018-03-22T06:08:22.146Z,2.54
2018-03-22T06:09:22.170Z,2.54
2018-03-22T06:10:22.180Z,2.58
2018-03-22T06:11:22.072Z,2.69
2018-03-22T06:12:22.124Z,2.51
2018-03-22T06:13:22.404Z,2.58
2018-03-22T06:14:22.079Z,2.69
2018-03-22T06:15:22.103Z,2.69
2018-03-22T06:16:22.029Z,2.75
2018-03-22T06:17:21.998Z,2.81
2018-03-22T06:18:21.975Z,2.79
2018-03-22T06:19:22.258Z,2.78
2018-03-22T06:20:21.843Z,2.72
2018-03-22T06:21:21.865Z,2.82
2018-03-22T06:22:21.791Z,2.84
2018-03-22T06:23:21.770Z,2.84
2018-03-22T06:24:21.740Z,2.82
2018-03-22T06:25:22.026Z,2.81
2018-03-22T06:27:21.711Z,2.93
2018-03-22T06:28:21.639Z,2.93
2018-03-22T06:29:21.615Z,2.89
2018-03-22T06:30:21.589Z,2.94
2018-03-22T06:31:21.659Z,2.91
2018-03-22T06:32:21.872Z,2.96
2018-03-22T06:33:21.649Z,2.97
2018-03-22T06:34:21.576Z,2.97
2018-03-22T06:35:21.656Z,2.94
2018-03-22T06:36:21.532Z,2.96
2018-03-22T06:37:21.425Z,3.02
2018-03-22T06:38:21.449Z,2.99
2018-03-22T06:39:21.774Z,2.99
2018-03-22T06:40:21.341Z,3.07
2018-03-22T06:41:21.313Z,3.05
2018-03-22T06:42:21.640Z,3.02
2018-03-22T06:43:21.277Z,2.99
2018-03-22T06:44:21.246Z,2.97
2018-03-22T06:45:21.273Z,2.99
2018-03-22T06:46:21.555Z,3.02
2018-03-22T06:47:21.168Z,3.00
2018-03-22T06:48:21.142Z,3.00
2018-03-22T06:49:21.132Z,3.04
2018-03-22T06:50:21.146Z,3.04
2018-03-22T06:51:21.117Z,3.04
2018-03-22T06:53:21.335Z,3.02
2018-03-22T06:54:21.006Z,2.99
2018-03-22T06:55:20.980Z,3.02
2018-03-22T06:56:20.968Z,3.04
2018-03-22T06:57:20.978Z,3.04
2018-03-22T06:59:20.884Z,3.07
2018-03-22T07:00:21.152Z,3.07
2018-03-22T07:01:20.933Z,3.14
2018-03-22T07:02:20.814Z,3.09
2018-03-22T07:03:20.847Z,3.15
2018-03-22T07:04:20.758Z,3.11
2018-03-22T07:05:20.736Z,3.11
2018-03-22T07:07:21.714Z,3.15
2018-03-22T07:08:20.652Z,3.15
2018-03-22T07:09:20.684Z,3.18
2018-03-22T07:10:20.803Z,3.20
2018-03-22T07:11:20.586Z,3.20
2018-03-22T07:12:20.578Z,3.15
2018-03-22T07:13:20.848Z,3.20
2018-03-22T07:14:20.525Z,3.25
2018-03-22T07:15:20.595Z,3.17
2018-03-22T07:17:20.493Z,3.18
2018-03-22T07:18:20.425Z,3.30
2018-03-22T07:19:20.689Z,3.23
2018-03-22T07:20:20.477Z,3.29
2018-03-22T07:21:20.381Z,3.23
2018-03-22T07:22:20.314Z,3.41
2018-03-22T07:23:20.285Z,3.29
2018-03-22T07:24:20.257Z,3.30
2018-03-22T07:25:20.534Z,3.35
2018-03-22T07:26:20.282Z,3.20
2018-03-22T07:27:20.251Z,3.37
2018-03-22T07:28:20.163Z,3.29
2018-03-22T07:29:20.247Z,3.35
2018-03-22T07:30:20.130Z,3.42
2018-03-22T07:31:20.507Z,3.36
2018-03-22T07:32:20.076Z,3.35
2018-03-22T07:33:20.393Z,3.44
2018-03-22T07:34:20.018Z,3.51
2018-03-22T07:35:19.988Z,3.51
2018-03-22T07:36:20.010Z,3.52
2018-03-22T07:37:20.007Z,3.51
2018-03-22T07:39:20.391Z,3.51
2018-03-22T07:40:19.866Z,3.66
2018-03-22T07:41:19.845Z,3.59
2018-03-22T07:42:19.825Z,3.70
2018-03-22T07:43:19.846Z,3.70
2018-03-22T07:44:19.828Z,3.81
2018-03-22T07:45:20.108Z,3.76
2018-03-22T07:46:19.728Z,3.82
2018-03-22T07:48:20.192Z,3.73
2018-03-22T07:49:19.759Z,3.91
2018-03-22T07:50:20.264Z,3.80
2018-03-22T07:51:19.758Z,3.88
2018-03-22T07:52:19.885Z,3.88
2018-03-22T07:53:19.659Z,3.84
2018-03-22T07:54:19.540Z,3.80
2018-03-22T07:55:19.519Z,3.81
2018-03-22T07:56:19.510Z,3.87
2018-03-22T07:57:19.533Z,3.76
2018-03-22T07:58:19.451Z,3.70
2018-03-22T07:59:19.725Z,3.72
2018-03-22T08:00:19.407Z,3.72
2018-03-22T08:01:19.444Z,3.64
2018-03-22T08:02:19.402Z,3.72
2018-03-22T08:03:25.648Z,3.73
2018-03-22T08:04:19.304Z,3.72
2018-03-22T08:05:20.666Z,3.72
2018-03-22T08:06:19.281Z,3.72
2018-03-22T08:08:19.210Z,3.72
2018-03-22T08:09:19.236Z,3.81
2018-03-22T08:10:19.258Z,3.80
2018-03-22T08:11:19.190Z,3.80
2018-03-22T08:13:19.411Z,3.87
2018-03-22T08:14:19.117Z,3.91
2018-03-22T08:15:19.102Z,3.84
2018-03-22T08:16:19.368Z,3.87
2018-03-22T08:17:19.082Z,3.85
2018-03-22T08:18:18.979Z,3.82
2018-03-22T08:19:18.953Z,3.94
2018-03-22T08:21:19.408Z,3.80
2018-03-22T08:22:19.269Z,3.84
2018-03-22T08:23:18.924Z,4.00
2018-03-22T08:24:19.148Z,4.03
2018-03-22T08:25:18.831Z,3.99
2018-03-22T08:26:18.817Z,3.91
2018-03-22T08:27:19.122Z,3.92
2018-03-22T08:28:18.884Z,3.96
2018-03-22T08:29:18.731Z,3.88
2018-03-22T08:30:19.407Z,3.82
2018-03-22T08:31:18.688Z,3.85
2018-03-22T08:32:18.714Z,3.87
2018-03-22T08:33:19.281Z,3.85
2018-03-22T08:34:18.603Z,3.91
2018-03-22T08:35:18.590Z,3.82
2018-03-22T08:36:18.562Z,3.88
2018-03-22T08:37:18.545Z,3.87
2018-03-22T08:38:18.518Z,3.92
2018-03-22T08:39:18.857Z,3.84
2018-03-22T08:40:18.474Z,3.84
2018-03-22T08:41:18.467Z,3.90
2018-03-22T08:42:18.496Z,3.84
2018-03-22T08:44:18.380Z,3.99
2018-03-22T08:45:18.708Z,3.98
2018-03-22T08:46:18.343Z,3.96
2018-03-22T08:47:18.318Z,4.06
2018-03-22T08:48:18.308Z,4.09
2018-03-22T08:49:18.264Z,4.13
2018-03-22T08:50:18.242Z,4.12
2018-03-22T08:51:18.713Z,4.16
2018-03-22T08:52:18.193Z,4.08
2018-03-22T08:53:18.171Z,4.17
2018-03-22T08:54:18.163Z,4.12
2018-03-22T08:55:18.123Z,4.13
2018-03-22T08:56:18.111Z,4.10
2018-03-22T08:57:18.137Z,4.20
2018-03-22T08:58:18.063Z,4.23
2018-03-22T08:59:18.034Z,4.16
2018-03-22T09:01:17.997Z,4.16
2018-03-22T09:03:18.292Z,4.23
2018-03-22T09:04:17.923Z,4.27
2018-03-22T09:05:17.898Z,4.24
2018-03-22T09:06:17.921Z,4.20
2018-03-22T09:07:17.853Z,4.20
2018-03-22T09:08:17.825Z,4.27
2018-03-22T09:09:18.162Z,4.24
2018-03-22T09:10:17.783Z,4.28
2018-03-22T09:11:17.762Z,4.28
2018-03-22T09:12:17.724Z,4.28
2018-03-22T09:13:17.703Z,4.24
2018-03-22T09:15:18.123Z,4.23
2018-03-22T09:16:17.646Z,4.28
2018-03-22T09:17:17.622Z,4.23
2018-03-22T09:18:17.601Z,4.26
2018-03-22T09:19:17.576Z,4.28
2018-03-22T09:20:17.554Z,4.35
2018-03-22T09:21:17.854Z,4.27
2018-03-22T09:22:17.744Z,4.38
2018-03-22T09:23:17.477Z,4.43
2018-03-22T09:24:17.465Z,4.31
2018-03-22T09:25:17.608Z,4.38
2018-03-22T09:27:17.941Z,4.31
2018-03-22T09:28:17.371Z,4.28
2018-03-22T09:29:18.006Z,4.31
2018-03-22T09:30:17.338Z,4.42
2018-03-22T09:31:17.378Z,4.31
2018-03-22T09:32:17.363Z,4.34
2018-03-22T09:33:17.704Z,4.28
2018-03-22T09:35:17.290Z,4.36
2018-03-22T09:36:17.301Z,4.34
2018-03-22T09:37:17.241Z,4.21
2018-03-22T09:38:17.228Z,4.35
2018-03-22T09:39:17.497Z,4.26
2018-03-22T09:40:17.099Z,4.31
2018-03-22T09:41:17.156Z,4.35
2018-03-22T09:42:17.124Z,4.35
2018-03-22T09:43:17.035Z,4.28
2018-03-22T09:44:17.021Z,4.36
2018-03-22T09:45:17.342Z,4.38
2018-03-22T09:46:16.972Z,4.42
2018-03-22T09:48:16.923Z,4.31
2018-03-22T09:49:16.894Z,4.35
2018-03-22T09:50:16.888Z,4.39
2018-03-22T09:51:17.951Z,4.39
2018-03-22T09:52:16.877Z,4.36
2018-03-22T09:53:16.798Z,4.43
2018-03-22T09:54:16.779Z,4.34
2018-03-22T09:55:16.759Z,4.38
2018-03-22T09:56:16.833Z,4.42
2018-03-22T09:57:16.911Z,4.42
2018-03-22T09:58:16.698Z,4.35
2018-03-22T09:59:16.676Z,4.35
2018-03-22T10:01:16.635Z,4.41
2018-03-22T10:02:16.598Z,4.45
2018-03-22T10:03:16.624Z,4.42
2018-03-22T10:04:16.561Z,4.42
2018-03-22T10:06:16.506Z,4.56
2018-03-22T10:07:16.486Z,4.54
2018-03-22T10:08:16.462Z,4.51
2018-03-22T10:09:16.787Z,4.56
2018-03-22T10:10:16.438Z,4.51
2018-03-22T10:11:16.447Z,4.53
2018-03-22T10:12:16.392Z,4.56
2018-03-22T10:13:16.350Z,4.59
2018-03-22T10:14:16.342Z,4.49
2018-03-22T10:15:16.347Z,4.53
2018-03-22T10:16:16.420Z,4.63
2018-03-22T10:17:16.264Z,4.66
2018-03-22T10:18:16.234Z,4.59
2018-03-22T10:19:16.271Z,4.63
2018-03-22T10:20:16.199Z,4.60
2018-03-22T10:21:16.615Z,4.63
2018-03-22T10:22:16.152Z,4.66
2018-03-22T10:23:16.117Z,4.78
2018-03-22T10:24:16.102Z,4.63
2018-03-22T10:25:16.294Z,4.69
2018-03-22T10:26:16.052Z,4.78
2018-03-22T10:27:16.070Z,4.77
2018-03-22T10:28:16.010Z,4.75
2018-03-22T10:29:16.018Z,4.72
2018-03-22T10:31:15.943Z,4.72
2018-03-22T10:32:16.231Z,4.72
2018-03-22T10:33:16.296Z,4.82
2018-03-22T10:34:15.878Z,4.78
2018-03-22T10:35:15.859Z,4.83
2018-03-22T10:36:15.824Z,4.74
2018-03-22T10:37:15.816Z,4.78
2018-03-22T10:38:15.774Z,4.88
2018-03-22T10:39:16.109Z,4.86
2018-03-22T10:40:15.863Z,4.89
2018-03-22T10:41:15.722Z,4.91
2018-03-22T10:42:15.899Z,4.93
2018-03-22T10:43:15.673Z,4.88
2018-03-22T10:44:15.665Z,4.83
2018-03-22T10:45:15.825Z,4.83
2018-03-22T10:50:16.258Z,4.91
2018-03-22T10:51:15.535Z,4.96
2018-03-22T10:52:15.536Z,5.01
2018-03-22T10:53:15.444Z,4.97
2018-03-22T10:54:15.541Z,5.11
2018-03-22T10:55:15.435Z,5.11
2018-03-22T10:57:15.710Z,5.22
2018-03-22T10:59:15.322Z,5.19
2018-03-22T11:00:15.284Z,5.14
2018-03-22T11:02:15.253Z,5.32
2018-03-22T11:03:15.579Z,5.37
2018-03-22T11:04:15.203Z,5.41
2018-03-22T11:05:15.185Z,5.30
2018-03-22T11:06:15.170Z,5.34
2018-03-22T11:07:15.143Z,5.40
2018-03-22T11:09:15.147Z,5.27
2018-03-22T11:10:15.071Z,5.41
2018-03-22T11:11:15.055Z,5.41
2018-03-22T11:12:15.032Z,5.40
2018-03-22T11:13:15.019Z,5.37
2018-03-22T11:14:14.999Z,5.44
2018-03-22T11:15:15.017Z,5.43
2018-03-22T11:16:14.957Z,5.48
2018-03-22T11:17:15.197Z,5.41
2018-03-22T11:18:15.187Z,5.50
2018-03-22T11:19:15.365Z,5.55
2018-03-22T11:20:15.342Z,5.55
2018-03-22T11:21:16.136Z,5.52
2018-03-22T11:22:15.050Z,5.50
2018-03-22T11:23:15.211Z,5.55
2018-03-22T11:25:14.793Z,5.55
2018-03-22T11:26:14.760Z,5.52
2018-03-22T11:27:15.057Z,5.55
2018-03-22T11:28:14.747Z,5.65
2018-03-22T11:31:14.622Z,5.70
2018-03-22T11:32:14.602Z,5.75
2018-03-22T11:33:14.628Z,5.70
2018-03-22T11:34:14.569Z,5.73
2018-03-22T11:35:14.556Z,5.80
2018-03-22T11:36:14.520Z,5.82
2018-03-22T11:37:14.502Z,5.79
2018-03-22T11:38:14.782Z,5.80
2018-03-22T11:39:14.524Z,5.80
2018-03-22T11:40:14.441Z,5.82
2018-03-22T11:41:14.426Z,5.87
2018-03-22T11:42:14.392Z,5.91
2018-03-22T11:44:14.654Z,5.93
2018-03-22T11:45:14.562Z,5.82
2018-03-22T11:46:14.309Z,5.95
2018-03-22T11:47:14.509Z,5.94
2018-03-22T11:48:14.815Z,6.08
2018-03-22T11:49:14.245Z,6.13
2018-03-22T11:51:14.251Z,6.02
2018-03-22T11:52:14.191Z,6.06
2018-03-22T11:53:14.246Z,6.11
2018-03-22T11:56:14.401Z,6.13
2018-03-22T11:57:14.140Z,6.15
2018-03-22T11:58:14.059Z,6.19
2018-03-22T11:59:14.034Z,6.16
2018-03-22T12:00:14.929Z,6.15
2018-03-22T12:01:13.992Z,6.16
2018-03-22T12:02:13.983Z,6.16
2018-03-22T12:05:13.971Z,6.24
2018-03-22T12:06:13.904Z,6.18
2018-03-22T12:07:13.873Z,6.32
2018-03-22T12:08:13.855Z,6.19
2018-03-22T12:09:13.901Z,6.37
2018-03-22T12:10:13.821Z,6.18
2018-03-22T12:11:13.995Z,6.34
2018-03-22T12:12:13.879Z,6.60
2018-03-22T12:15:14.022Z,6.60
2018-03-22T12:16:13.684Z,6.50
2018-03-22T12:17:13.755Z,6.47
2018-03-22T12:18:13.653Z,6.43
2018-03-22T12:19:13.984Z,6.61
2018-03-22T12:20:13.619Z,6.53
2018-03-22T12:21:13.598Z,6.56
2018-03-22T12:22:13.579Z,6.43
2018-03-22T12:23:13.609Z,6.53
2018-03-22T12:24:13.647Z,6.73
2018-03-22T12:25:13.524Z,6.71
2018-03-22T12:26:13.496Z,6.73
2018-03-22T12:27:13.475Z,6.65
2018-03-22T12:28:13.458Z,6.74
2018-03-22T12:29:13.499Z,6.70
2018-03-22T12:30:13.420Z,6.65
2018-03-22T12:31:13.452Z,6.63
2018-03-22T12:32:13.378Z,6.61
2018-03-22T12:33:13.674Z,6.68
2018-03-22T12:34:13.350Z,6.67
2018-03-22T12:35:13.368Z,6.82
2018-03-22T12:36:13.300Z,6.75
2018-03-22T12:37:13.281Z,6.82
2018-03-22T12:38:13.264Z,6.71
2018-03-22T12:39:13.563Z,6.89
2018-03-22T12:40:13.272Z,6.88
2018-03-22T12:41:13.328Z,6.91
2018-03-22T12:42:13.184Z,6.88
2018-03-22T12:43:13.197Z,6.91
2018-03-22T12:44:13.160Z,7.06
2018-03-22T12:45:13.112Z,7.03
2018-03-22T12:46:13.093Z,6.91
2018-03-22T12:47:13.125Z,6.82
2018-03-22T12:48:13.175Z,6.88
2018-03-22T12:49:13.051Z,7.01
2018-03-22T12:50:13.079Z,7.00
2018-03-22T12:51:13.304Z,7.03
2018-03-22T12:52:12.979Z,7.06
2018-03-22T12:53:13.016Z,7.19
2018-03-22T12:54:12.942Z,7.11
2018-03-22T12:55:12.938Z,7.04
2018-03-22T12:56:13.101Z,7.07
2018-03-22T12:57:12.946Z,7.21
2018-03-22T12:58:12.921Z,7.10
2018-03-22T12:59:12.906Z,7.25
2018-03-22T13:00:12.840Z,7.24
2018-03-22T13:01:12.828Z,7.31
2018-03-22T13:02:13.119Z,7.31
2018-03-22T13:03:12.783Z,7.37
2018-03-22T13:04:12.758Z,7.28
2018-03-22T13:05:12.889Z,7.28
2018-03-22T13:06:12.724Z,7.24
2018-03-22T13:07:12.701Z,7.18
2018-03-22T13:09:12.965Z,7.29
2018-03-22T13:10:12.639Z,7.22
2018-03-22T13:11:12.680Z,7.19
2018-03-22T13:14:12.567Z,7.18
2018-03-22T13:15:12.560Z,7.10
2018-03-22T13:16:12.658Z,7.21
2018-03-22T13:17:12.563Z,7.11
2018-03-22T13:18:12.504Z,7.11
2018-03-22T13:19:12.482Z,7.24
2018-03-22T13:20:12.468Z,7.26
2018-03-22T13:21:12.435Z,7.19
2018-03-22T13:22:12.419Z,7.13
2018-03-22T13:23:12.614Z,7.11
2018-03-22T13:24:12.434Z,6.99
2018-03-22T13:25:12.366Z,7.01
2018-03-22T13:26:12.335Z,7.08
2018-03-22T13:28:12.607Z,7.21
2018-03-22T13:29:12.478Z,7.19
2018-03-22T13:30:12.256Z,7.15
2018-03-22T13:31:12.238Z,7.28
2018-03-22T13:32:12.227Z,7.33
2018-03-22T13:33:12.203Z,7.29
2018-03-22T13:34:12.486Z,7.31
2018-03-22T13:35:12.224Z,7.31
2018-03-22T13:36:12.148Z,7.28
2018-03-22T13:37:12.443Z,7.29
2018-03-22T13:38:12.117Z,7.28
2018-03-22T13:39:12.394Z,7.25
2018-03-22T13:40:12.369Z,7.25
2018-03-22T13:41:12.403Z,7.31
2018-03-22T13:42:12.187Z,7.21
2018-03-22T13:43:12.173Z,7.24
2018-03-22T13:45:12.013Z,7.22
2018-03-22T13:46:12.105Z,7.25
2018-03-22T13:47:12.201Z,7.24
2018-03-22T13:48:11.939Z,7.21
2018-03-22T13:49:12.003Z,7.24
2018-03-22T13:50:11.922Z,7.29
2018-03-22T13:51:11.891Z,7.29
2018-03-22T13:52:12.197Z,7.28
2018-03-22T13:53:12.012Z,7.26
2018-03-22T13:54:11.830Z,7.18
2018-03-22T13:55:11.842Z,7.21
2018-03-22T13:56:11.753Z,7.31
2018-03-22T13:57:11.726Z,7.28
2018-03-22T13:58:11.717Z,7.19
2018-03-22T13:59:11.736Z,7.22
2018-03-22T14:00:11.666Z,7.21
2018-03-22T14:01:11.651Z,7.24
2018-03-22T14:02:11.624Z,7.39
2018-03-22T14:03:11.610Z,7.33
2018-03-22T14:04:11.891Z,7.28
2018-03-22T14:05:11.610Z,7.36
2018-03-22T14:06:11.543Z,7.36
2018-03-22T14:07:11.580Z,7.40
2018-03-22T14:08:11.501Z,7.34
2018-03-22T14:09:11.480Z,7.44
2018-03-22T14:10:11.768Z,7.39
2018-03-22T14:11:11.497Z,7.37
2018-03-22T14:12:11.517Z,7.39
2018-03-22T14:13:11.431Z,7.39
2018-03-22T14:14:11.495Z,7.47
2018-03-22T14:15:11.432Z,7.50
2018-03-22T14:16:11.646Z,7.52
2018-03-22T14:17:11.379Z,7.58
2018-03-22T14:18:11.313Z,7.58
2018-03-22T14:19:11.296Z,7.50
2018-03-22T14:20:11.264Z,7.61
2018-03-22T14:21:11.303Z,7.52
2018-03-22T14:22:11.736Z,7.55
2018-03-22T14:23:11.370Z,7.54